createdAt,value
2022-07-27T00:01:59.877Z,21.70
2022-07-27T00:04:27.699Z,21.70
2022-07-27T00:06:55.138Z,21.94
2022-07-27T00:09:22.521Z,21.50
2022-07-27T00:11:50.265Z,21.66
2022-07-27T00:14:17.690Z,21.35
2022-07-27T00:16:45.447Z,21.54
2022-07-27T00:19:13.441Z,21.37
2022-07-27T00:21:44.528Z,21.76
2022-07-27T00:24:13.805Z,21.70
2022-07-27T00:26:41.376Z,21.73
2022-07-27T00:29:09.249Z,21.47
2022-07-27T00:31:37.508Z,21.60
2022-07-27T00:34:05.045Z,21.08
2022-07-27T00:36:32.455Z,21.50
2022-07-27T00:39:00.128Z,21.40
2022-07-27T00:41:27.521Z,21.45
2022-07-27T00:43:59.376Z,21.07
2022-07-27T00:46:28.494Z,21.28
2022-07-27T00:48:56.080Z,21.44
2022-07-27T00:51:23.642Z,21.23
2022-07-27T00:53:53.373Z,21.00
2022-07-27T00:56:21.805Z,21.13
2022-07-27T00:58:50.698Z,20.98
2022-07-27T01:01:19.540Z,20.97
2022-07-27T01:03:47.949Z,21.39
2022-07-27T01:06:16.545Z,21.04
2022-07-27T01:09:17.597Z,21.35
2022-07-27T01:11:46.151Z,21.09
2022-07-27T01:14:15.950Z,20.86
2022-07-27T01:16:43.789Z,21.15
2022-07-27T01:19:12.628Z,21.05
2022-07-27T01:21:40.652Z,21.23
2022-07-27T01:24:08.248Z,21.12
2022-07-27T01:26:36.475Z,20.96
2022-07-27T01:29:04.533Z,21.01
2022-07-27T01:31:32.109Z,21.46
2022-07-27T01:33:59.709Z,21.15
2022-07-27T01:36:27.450Z,20.93
2022-07-27T01:38:55.023Z,21.07
2022-07-27T01:41:22.436Z,21.19
2022-07-27T01:43:50.133Z,21.03
2022-07-27T01:46:17.602Z,20.78
2022-07-27T01:48:45.213Z,20.75
2022-07-27T01:51:12.896Z,20.87
2022-07-27T01:53:40.356Z,20.62
2022-07-27T01:56:11.432Z,20.57
2022-07-27T01:58:40.203Z,20.60
2022-07-27T02:01:08.209Z,20.85
2022-07-27T02:03:36.260Z,20.63
2022-07-27T02:06:04.576Z,20.71
2022-07-27T02:08:32.346Z,20.71
2022-07-27T02:11:18.443Z,20.73
2022-07-27T02:13:47.466Z,20.77
2022-07-27T02:16:17.238Z,20.79
2022-07-27T02:18:45.931Z,20.81
2022-07-27T02:21:16.594Z,20.87
2022-07-27T02:23:45.157Z,20.63
2022-07-27T02:26:12.541Z,20.60
2022-07-27T02:28:40.194Z,20.81
2022-07-27T02:31:07.589Z,20.60
2022-07-27T02:33:35.033Z,20.62
2022-07-27T02:36:03.136Z,20.63
2022-07-27T02:38:30.561Z,20.30
2022-07-27T02:40:58.164Z,20.33
2022-07-27T02:43:25.822Z,20.29
2022-07-27T02:45:53.279Z,20.44
2022-07-27T02:48:20.711Z,20.41
2022-07-27T02:50:48.401Z,20.37
2022-07-27T02:53:15.824Z,20.45
2022-07-27T02:55:43.224Z,20.36
2022-07-27T02:58:10.906Z,20.34
2022-07-27T03:00:38.322Z,20.53
2022-07-27T03:03:05.729Z,20.28
2022-07-27T03:05:33.658Z,20.03
2022-07-27T03:08:01.191Z,20.16
2022-07-27T03:10:28.582Z,20.26
2022-07-27T03:12:56.314Z,20.20
2022-07-27T03:15:24.202Z,20.07
2022-07-27T03:17:53.590Z,20.26
2022-07-27T03:20:21.281Z,19.98
2022-07-27T03:22:48.678Z,20.04
2022-07-27T03:25:16.622Z,20.47
2022-07-27T03:27:44.282Z,20.08
2022-07-27T03:30:11.855Z,20.04
2022-07-27T03:32:39.230Z,20.39
2022-07-27T03:35:07.248Z,20.23
2022-07-27T03:37:34.793Z,20.16
2022-07-27T03:40:02.188Z,20.61
2022-07-27T03:42:29.875Z,20.61
2022-07-27T03:44:57.253Z,20.91
2022-07-27T03:47:25.090Z,21.26
2022-07-27T03:49:52.954Z,21.19
2022-07-27T03:52:20.833Z,21.44
2022-07-27T03:54:48.266Z,21.53
2022-07-27T03:57:15.960Z,21.49
2022-07-27T03:59:43.380Z,21.83
2022-07-27T04:02:10.842Z,22.05
2022-07-27T04:04:38.724Z,22.21
2022-07-27T04:07:06.190Z,22.55
2022-07-27T04:09:34.567Z,22.72
2022-07-27T04:12:02.243Z,22.88
2022-07-27T04:14:30.488Z,22.97
2022-07-27T04:16:57.903Z,23.03
2022-07-27T04:19:25.678Z,23.10
2022-07-27T04:21:53.070Z,23.44
2022-07-27T04:24:20.467Z,23.65
2022-07-27T04:26:48.219Z,23.78
2022-07-27T04:29:20.189Z,23.89
2022-07-27T04:31:48.877Z,23.90
2022-07-27T04:34:16.456Z,24.01
2022-07-27T04:36:44.758Z,23.94
2022-07-27T04:39:12.874Z,23.98
2022-07-27T04:41:40.541Z,24.43
2022-07-27T04:44:08.401Z,24.39
2022-07-27T04:46:36.116Z,24.46
2022-07-27T04:49:03.552Z,24.14
2022-07-27T04:51:34.542Z,24.55
2022-07-27T04:54:02.916Z,24.71
2022-07-27T04:56:30.303Z,25.22
2022-07-27T04:58:57.683Z,25.47
2022-07-27T05:01:26.747Z,25.72
2022-07-27T05:03:56.742Z,25.54
2022-07-27T05:06:24.219Z,25.52
2022-07-27T05:08:51.940Z,25.73
2022-07-27T05:11:19.340Z,26.05
2022-07-27T05:13:46.720Z,25.75
2022-07-27T05:16:14.481Z,26.39
2022-07-27T05:18:42.046Z,26.34
2022-07-27T05:21:09.786Z,25.91
2022-07-27T05:23:40.176Z,26.16
2022-07-27T05:26:07.681Z,26.52
2022-07-27T05:28:35.103Z,26.53
2022-07-27T05:31:02.758Z,26.87
2022-07-27T05:33:30.163Z,27.07
2022-07-27T05:35:57.795Z,27.21
2022-07-27T05:38:25.447Z,27.20
2022-07-27T05:40:53.364Z,26.91
2022-07-27T05:43:20.793Z,27.34
2022-07-27T05:45:48.595Z,27.69
2022-07-27T05:48:16.019Z,27.57
2022-07-27T05:50:43.819Z,26.99
2022-07-27T05:53:11.646Z,27.33
2022-07-27T05:55:39.050Z,27.80
2022-07-27T05:58:27.328Z,28.01
2022-07-27T06:00:54.836Z,28.34
2022-07-27T06:03:23.418Z,28.63
2022-07-27T06:05:50.885Z,28.68
2022-07-27T06:08:18.368Z,29.08
2022-07-27T06:10:46.109Z,29.06
2022-07-27T06:13:13.992Z,29.52
2022-07-27T06:15:41.503Z,30.00
2022-07-27T06:18:15.025Z,30.32
2022-07-27T06:20:43.254Z,30.10
2022-07-27T06:23:11.204Z,29.95
2022-07-27T06:25:38.712Z,29.53
2022-07-27T06:28:06.675Z,29.41
2022-07-27T06:30:34.628Z,29.22
2022-07-27T06:33:06.052Z,29.19
2022-07-27T06:35:34.831Z,29.08
2022-07-27T06:38:05.366Z,29.17
2022-07-27T06:40:32.852Z,29.27
2022-07-27T06:43:00.596Z,29.35
2022-07-27T06:45:28.078Z,30.04
2022-07-27T06:47:55.469Z,29.23
2022-07-27T06:50:23.483Z,30.02
2022-07-27T06:52:51.021Z,30.90
2022-07-27T06:55:18.499Z,30.19
2022-07-27T06:57:46.629Z,31.07
2022-07-27T07:00:15.091Z,30.71
2022-07-27T07:02:58.917Z,30.75
2022-07-27T07:05:26.796Z,30.23
2022-07-27T07:07:54.186Z,29.71
2022-07-27T07:10:23.775Z,31.03
2022-07-27T07:12:57.610Z,29.94
2022-07-27T07:15:26.540Z,29.98
2022-07-27T07:17:54.510Z,30.59
2022-07-27T07:20:22.419Z,30.46
2022-07-27T07:22:50.408Z,30.54
2022-07-27T07:25:18.119Z,29.68
2022-07-27T07:27:45.787Z,29.12
2022-07-27T07:30:13.437Z,28.84
2022-07-27T07:32:41.128Z,28.55
2022-07-27T07:35:09.234Z,28.80
2022-07-27T07:37:36.656Z,28.35
2022-07-27T07:40:32.155Z,27.87
2022-07-27T07:42:56.656Z,28.26
2022-07-27T07:45:24.956Z,28.18
2022-07-27T07:47:52.949Z,28.29
2022-07-27T07:50:21.160Z,27.77
2022-07-27T07:52:49.615Z,27.48
2022-07-27T07:55:20.588Z,27.67
2022-07-27T07:57:50.878Z,27.10
2022-07-27T08:00:20.813Z,27.48
2022-07-27T08:02:50.138Z,27.43
2022-07-27T08:05:17.674Z,27.39
2022-07-27T08:07:45.714Z,27.23
2022-07-27T08:10:15.023Z,28.02
2022-07-27T08:12:45.109Z,27.84
2022-07-27T08:15:14.132Z,27.64
2022-07-27T08:17:42.717Z,28.11
2022-07-27T08:20:11.260Z,28.46
2022-07-27T08:22:39.393Z,27.71
2022-07-27T08:25:07.390Z,28.16
2022-07-27T08:27:40.189Z,28.50
2022-07-27T08:30:11.693Z,28.62
2022-07-27T08:32:58.282Z,28.47
2022-07-27T08:35:26.093Z,28.51
2022-07-27T08:37:54.236Z,28.34
2022-07-27T08:43:11.148Z,28.46
2022-07-27T08:45:38.595Z,28.41
2022-07-27T08:48:06.396Z,28.12
2022-07-27T08:50:35.410Z,28.56
2022-07-27T08:53:06.000Z,28.59
2022-07-27T08:55:42.059Z,28.68
2022-07-27T08:58:11.694Z,28.68
2022-07-27T09:00:42.380Z,29.04
2022-07-27T09:03:19.495Z,28.79
2022-07-27T09:05:55.755Z,28.71
2022-07-27T09:08:26.373Z,28.46
2022-07-27T09:10:55.855Z,28.53
2022-07-27T09:13:27.235Z,28.53
2022-07-27T09:18:43.651Z,28.69
2022-07-27T09:21:16.969Z,28.53
2022-07-27T09:23:50.946Z,28.88
2022-07-27T09:26:31.907Z,28.90
2022-07-27T09:29:07.523Z,28.67
2022-07-27T09:31:41.845Z,28.82
2022-07-27T09:34:09.817Z,28.75
2022-07-27T09:36:52.160Z,28.66
2022-07-27T09:39:21.658Z,29.03
2022-07-27T09:41:55.379Z,28.84
2022-07-27T09:44:42.175Z,28.13
2022-07-27T09:47:28.961Z,28.80
2022-07-27T09:49:59.111Z,29.35
2022-07-27T09:52:29.626Z,28.95
2022-07-27T09:55:05.567Z,28.24
2022-07-27T09:57:57.312Z,29.28
2022-07-27T10:00:25.908Z,29.31
2022-07-27T10:02:54.999Z,29.44
2022-07-27T10:05:23.317Z,29.67
2022-07-27T10:07:52.853Z,30.26
2022-07-27T10:10:21.423Z,29.76
2022-07-27T10:12:54.003Z,29.63
2022-07-27T10:15:25.931Z,29.48
2022-07-27T10:18:07.367Z,29.60
2022-07-27T10:20:38.419Z,29.60
2022-07-27T10:23:07.496Z,29.79
2022-07-27T10:25:37.910Z,29.64
2022-07-27T10:28:11.585Z,29.18
2022-07-27T10:30:39.717Z,29.34
2022-07-27T10:33:38.024Z,29.85
2022-07-27T10:36:16.826Z,29.80
2022-07-27T10:38:47.160Z,30.09
2022-07-27T10:41:22.298Z,30.76
2022-07-27T10:43:51.460Z,30.43
2022-07-27T10:46:21.050Z,30.34
2022-07-27T10:48:49.421Z,30.50
2022-07-27T10:51:17.608Z,30.37
2022-07-27T10:56:47.173Z,29.50
2022-07-27T10:59:15.304Z,30.43
2022-07-27T11:01:57.413Z,30.78
2022-07-27T11:04:25.792Z,30.52
2022-07-27T11:10:05.861Z,30.69
2022-07-27T11:12:33.887Z,31.21
2022-07-27T11:15:01.686Z,31.64
2022-07-27T11:20:23.581Z,32.13
2022-07-27T11:23:40.673Z,32.04
2022-07-27T11:25:38.624Z,31.91
2022-07-27T11:28:07.583Z,32.04
2022-07-27T11:30:35.082Z,31.84
2022-07-27T11:33:04.674Z,31.34
2022-07-27T11:35:32.175Z,30.30
2022-07-27T11:38:02.318Z,31.26
2022-07-27T11:41:12.910Z,31.89
2022-07-27T11:43:37.168Z,31.61
2022-07-27T11:46:15.344Z,30.97
2022-07-27T11:49:11.840Z,30.25
2022-07-27T11:51:41.752Z,30.00
2022-07-27T11:54:17.829Z,29.67
2022-07-27T11:56:49.249Z,29.59
2022-07-27T11:59:21.946Z,30.08
2022-07-27T12:01:54.793Z,30.06
2022-07-27T12:04:39.638Z,30.75
2022-07-27T12:07:20.160Z,31.28
2022-07-27T12:09:54.613Z,31.34
2022-07-27T12:12:26.804Z,30.17
2022-07-27T12:14:58.960Z,30.25
2022-07-27T12:17:27.761Z,30.73
2022-07-27T12:19:57.025Z,30.66
2022-07-27T12:22:28.634Z,31.00
2022-07-27T12:24:57.707Z,31.09
2022-07-27T12:27:29.069Z,31.04
2022-07-27T12:29:57.861Z,31.10
2022-07-27T12:32:26.043Z,31.64
2022-07-27T12:34:54.919Z,31.72
2022-07-27T12:37:22.557Z,32.47
2022-07-27T12:39:50.490Z,32.88
2022-07-27T12:42:17.929Z,32.94
2022-07-27T12:44:46.512Z,33.49
2022-07-27T12:47:32.603Z,33.86
2022-07-27T12:50:12.226Z,33.85
2022-07-27T12:52:53.365Z,34.20
2022-07-27T12:55:22.502Z,33.71
2022-07-27T12:57:57.578Z,33.03
2022-07-27T13:00:33.595Z,33.01
2022-07-27T13:03:02.451Z,33.20
2022-07-27T13:05:31.696Z,32.38
2022-07-27T13:07:59.150Z,32.10
2022-07-27T13:10:27.585Z,31.85
2022-07-27T13:12:55.540Z,31.88
2022-07-27T13:15:22.964Z,32.29
2022-07-27T13:17:50.547Z,33.10
2022-07-27T13:20:18.524Z,32.86
2022-07-27T13:22:46.674Z,33.03
2022-07-27T13:25:17.230Z,32.85
2022-07-27T13:27:46.539Z,32.41
2022-07-27T13:30:16.187Z,32.73
2022-07-27T13:32:44.176Z,33.23
2022-07-27T13:35:12.697Z,33.21
2022-07-27T13:37:40.741Z,33.08
2022-07-27T13:40:09.837Z,32.91
2022-07-27T13:42:37.886Z,33.05
2022-07-27T13:45:10.466Z,33.54
2022-07-27T13:47:40.347Z,32.58
2022-07-27T13:50:13.642Z,33.23
2022-07-27T13:52:46.619Z,33.33
2022-07-27T13:55:15.888Z,32.76
2022-07-27T13:57:43.780Z,33.08
2022-07-27T14:00:11.985Z,33.73
2022-07-27T14:02:39.973Z,33.48
2022-07-27T14:05:12.321Z,33.63
2022-07-27T14:07:43.116Z,33.25
2022-07-27T14:10:30.888Z,31.57
2022-07-27T14:13:07.713Z,32.56
2022-07-27T14:15:53.700Z,32.96
2022-07-27T14:18:25.062Z,32.69
2022-07-27T14:20:53.065Z,33.20
2022-07-27T14:23:21.086Z,32.91
2022-07-27T14:25:48.865Z,32.99
2022-07-27T14:28:16.763Z,33.37
2022-07-27T14:30:45.063Z,33.46
2022-07-27T14:33:12.705Z,33.51
2022-07-27T14:35:41.042Z,33.76
2022-07-27T14:38:09.594Z,33.60
2022-07-27T14:40:38.342Z,33.71
2022-07-27T14:43:06.309Z,33.72
2022-07-27T14:45:44.092Z,33.86
2022-07-27T14:48:21.455Z,33.76
2022-07-27T14:50:52.674Z,33.86
2022-07-27T14:53:20.327Z,32.68
2022-07-27T14:55:47.728Z,32.41
2022-07-27T14:58:15.126Z,32.68
2022-07-27T15:00:43.065Z,31.89
2022-07-27T15:03:14.847Z,31.87
2022-07-27T15:05:49.957Z,31.81
2022-07-27T15:08:20.096Z,31.83
2022-07-27T15:10:48.985Z,32.24
2022-07-27T15:13:17.958Z,31.88
2022-07-27T15:15:48.598Z,32.45
2022-07-27T15:18:18.889Z,32.58
2022-07-27T15:20:47.776Z,32.57
2022-07-27T15:23:15.697Z,31.45
2022-07-27T15:25:43.339Z,31.45
2022-07-27T15:28:10.979Z,32.08
2022-07-27T15:30:38.975Z,32.04
2022-07-27T15:33:07.456Z,32.25
2022-07-27T15:35:34.922Z,31.80
2022-07-27T15:38:02.337Z,31.73
2022-07-27T15:40:41.548Z,31.97
2022-07-27T15:43:12.138Z,31.71
2022-07-27T15:45:41.078Z,32.08
2022-07-27T15:48:10.004Z,32.10
2022-07-27T15:50:39.262Z,32.10
2022-07-27T15:53:07.744Z,32.40
2022-07-27T15:55:37.490Z,32.70
2022-07-27T15:58:06.405Z,32.25
2022-07-27T16:00:39.485Z,32.58
2022-07-27T16:03:10.589Z,32.58
2022-07-27T16:05:39.277Z,32.62
2022-07-27T16:08:09.801Z,32.65
2022-07-27T16:10:39.261Z,32.26
2022-07-27T16:13:07.906Z,32.25
2022-07-27T16:15:54.629Z,32.38
2022-07-27T16:18:22.544Z,32.18
2022-07-27T16:20:50.877Z,32.53
2022-07-27T16:23:21.653Z,32.41
2022-07-27T16:26:04.130Z,31.66
2022-07-27T16:28:35.180Z,31.60
2022-07-27T16:31:05.004Z,31.30
2022-07-27T16:33:32.742Z,31.17
2022-07-27T16:36:00.206Z,31.43
2022-07-27T16:38:28.334Z,31.27
2022-07-27T16:40:55.744Z,31.43
2022-07-27T16:43:23.235Z,31.09
2022-07-27T16:46:04.306Z,31.50
2022-07-27T16:48:38.661Z,31.56
2022-07-27T16:51:14.711Z,31.40
2022-07-27T16:53:44.196Z,31.26
2022-07-27T16:56:12.102Z,31.18
2022-07-27T16:58:39.760Z,30.99
2022-07-27T17:01:08.229Z,30.80
2022-07-27T17:03:36.769Z,30.86
2022-07-27T17:06:06.542Z,31.24
2022-07-27T17:08:36.273Z,30.96
2022-07-27T17:11:06.090Z,30.97
2022-07-27T17:13:35.083Z,30.77
2022-07-27T17:16:06.740Z,31.04
2022-07-27T17:18:39.837Z,31.02
2022-07-27T17:21:12.474Z,30.21
2022-07-27T17:23:41.725Z,30.40
2022-07-27T17:26:10.046Z,30.29
2022-07-27T17:28:39.689Z,30.03
2022-07-27T17:31:10.130Z,29.90
2022-07-27T17:33:39.186Z,29.90
2022-07-27T17:36:14.037Z,29.40
2022-07-27T17:38:46.847Z,28.83
2022-07-27T17:41:19.228Z,29.30
2022-07-27T17:43:52.056Z,29.47
2022-07-27T17:46:19.896Z,29.42
2022-07-27T17:48:47.403Z,28.74
2022-07-27T17:51:14.849Z,29.30
2022-07-27T17:53:43.619Z,28.76
2022-07-27T17:56:11.254Z,28.84
2022-07-27T17:58:39.341Z,27.92
2022-07-27T18:01:08.842Z,28.52
2022-07-27T18:03:37.054Z,28.70
2022-07-27T18:06:04.786Z,28.43
2022-07-27T18:08:32.397Z,28.50
2022-07-27T18:11:00.116Z,28.72
2022-07-27T18:13:39.424Z,28.36
2022-07-27T18:16:12.069Z,28.25
2022-07-27T18:18:41.331Z,28.41
2022-07-27T18:21:09.458Z,28.56
2022-07-27T18:23:36.859Z,28.35
2022-07-27T18:26:04.316Z,28.52
2022-07-27T18:28:39.154Z,28.35
2022-07-27T18:31:08.545Z,28.67
2022-07-27T18:33:37.017Z,28.45
2022-07-27T18:36:05.324Z,28.31
2022-07-27T18:38:32.766Z,28.24
2022-07-27T18:41:00.458Z,28.12
2022-07-27T18:43:27.841Z,28.14
2022-07-27T18:45:55.425Z,27.99
2022-07-27T18:48:23.141Z,27.69
2022-07-27T18:50:51.948Z,27.22
2022-07-27T18:53:19.377Z,27.53
2022-07-27T18:55:47.105Z,27.14
2022-07-27T18:58:14.676Z,27.22
2022-07-27T19:00:42.687Z,27.16
2022-07-27T19:03:11.047Z,27.14
2022-07-27T19:05:41.347Z,27.42
2022-07-27T19:08:13.318Z,26.66
2022-07-27T19:10:42.469Z,26.85
2022-07-27T19:13:11.269Z,26.93
2022-07-27T19:15:39.663Z,26.78
2022-07-27T19:18:07.864Z,26.96
2022-07-27T19:20:36.782Z,27.20
2022-07-27T19:23:05.847Z,27.09
2022-07-27T19:25:34.005Z,27.26
2022-07-27T19:28:03.764Z,26.83
2022-07-27T19:30:31.401Z,26.78
2022-07-27T19:32:58.860Z,26.83
2022-07-27T19:35:26.835Z,26.56
2022-07-27T19:37:54.238Z,26.84
2022-07-27T19:43:09.442Z,26.66
2022-07-27T19:45:36.978Z,26.67
2022-07-27T19:48:05.684Z,26.49
2022-07-27T19:50:33.813Z,26.83
2022-07-27T19:53:02.167Z,26.32
2022-07-27T19:55:29.613Z,26.76
2022-07-27T19:57:57.398Z,26.56
2022-07-27T20:00:24.807Z,26.60
2022-07-27T20:02:52.550Z,26.77
2022-07-27T20:05:20.067Z,26.55
2022-07-27T20:07:47.456Z,26.48
2022-07-27T20:10:15.628Z,26.53
2022-07-27T20:12:43.094Z,26.32
2022-07-27T20:15:10.841Z,26.31
2022-07-27T20:17:40.413Z,26.43
2022-07-27T20:20:09.744Z,26.12
2022-07-27T20:22:39.268Z,25.85
2022-07-27T20:25:09.923Z,26.18
2022-07-27T20:27:38.009Z,25.74
2022-07-27T20:30:05.850Z,25.90
2022-07-27T20:32:33.782Z,25.57
2022-07-27T20:35:01.489Z,25.81
2022-07-27T20:37:28.900Z,25.40
2022-07-27T20:39:56.559Z,25.56
2022-07-27T20:42:24.002Z,25.91
2022-07-27T20:44:51.431Z,25.72
2022-07-27T20:47:19.107Z,26.21
2022-07-27T20:49:46.492Z,25.91
2022-07-27T20:52:14.035Z,25.51
2022-07-27T20:54:41.930Z,25.62
2022-07-27T20:57:09.349Z,25.40
2022-07-27T20:59:36.903Z,25.75
2022-07-27T21:02:05.207Z,25.79
2022-07-27T21:04:32.658Z,25.57
2022-07-27T21:07:00.072Z,25.74
2022-07-27T21:09:27.762Z,25.44
2022-07-27T21:11:55.157Z,25.30
2022-07-27T21:14:22.543Z,25.18
2022-07-27T21:16:50.592Z,25.05
2022-07-27T21:19:20.883Z,25.47
2022-07-27T21:21:48.522Z,25.64
2022-07-27T21:24:17.531Z,25.36
2022-07-27T21:26:48.615Z,24.74
2022-07-27T21:29:17.295Z,25.08
2022-07-27T21:31:48.150Z,24.81
2022-07-27T21:34:19.414Z,25.09
2022-07-27T21:36:47.674Z,24.68
2022-07-27T21:39:15.154Z,24.81
2022-07-27T21:41:43.850Z,25.05
2022-07-27T21:44:11.651Z,24.77
2022-07-27T21:46:39.392Z,24.85
2022-07-27T21:49:07.246Z,25.00
2022-07-27T21:51:34.713Z,24.67
2022-07-27T21:54:02.191Z,24.51
2022-07-27T21:56:29.874Z,24.76
2022-07-27T21:58:57.820Z,24.03
2022-07-27T22:01:25.636Z,23.94
2022-07-27T22:03:53.461Z,23.42
2022-07-27T22:06:21.001Z,24.23
2022-07-27T22:08:48.864Z,23.96
2022-07-27T22:11:16.526Z,24.09
2022-07-27T22:13:43.990Z,24.64
2022-07-27T22:16:13.293Z,24.77
2022-07-27T22:18:41.043Z,24.10
2022-07-27T22:21:08.856Z,24.40
2022-07-27T22:23:36.273Z,24.24
2022-07-27T22:26:03.937Z,24.00
2022-07-27T22:28:31.375Z,23.95
2022-07-27T22:30:59.682Z,24.20
2022-07-27T22:33:46.446Z,24.24
2022-07-27T22:36:13.945Z,24.72
2022-07-27T22:38:41.403Z,24.24
2022-07-27T22:41:09.059Z,23.27
2022-07-27T22:43:36.536Z,23.41
2022-07-27T22:46:04.851Z,23.83
2022-07-27T22:48:32.875Z,23.38
2022-07-27T22:51:00.325Z,23.28
2022-07-27T22:53:27.736Z,23.89
2022-07-27T22:55:55.519Z,24.30
2022-07-27T22:58:23.031Z,24.52
2022-07-27T23:00:50.716Z,25.00
2022-07-27T23:03:20.207Z,24.84
2022-07-27T23:05:47.685Z,24.80
2022-07-27T23:08:15.146Z,24.72
2022-07-27T23:10:48.698Z,25.01
2022-07-27T23:13:34.846Z,24.71
2022-07-27T23:16:02.624Z,24.68
2022-07-27T23:18:30.015Z,24.74
2022-07-27T23:20:57.398Z,25.04
2022-07-27T23:23:27.688Z,25.07
2022-07-27T23:25:55.257Z,24.78
2022-07-27T23:28:22.659Z,24.66
2022-07-27T23:30:51.513Z,24.71
2022-07-27T23:33:18.959Z,25.00
2022-07-27T23:35:46.380Z,24.98
2022-07-27T23:38:14.055Z,24.82
2022-07-27T23:40:41.450Z,24.86
2022-07-27T23:43:08.864Z,24.79
2022-07-27T23:45:36.586Z,24.66
2022-07-27T23:48:04.046Z,24.77
2022-07-27T23:50:31.424Z,24.71
2022-07-27T23:52:59.063Z,24.70
2022-07-27T23:55:26.891Z,24.79
2022-07-27T23:57:55.011Z,24.80
